This is the latest recevied weather packets stored in our database for station/object OK1PMP-6. If no packets are shown the sender has not sent any weather packets the latest 10 day(s).
| Time | Temp. | Humidity | Pressure | Rain* | Wind** | Luminosity | Snow |
|---|---|---|---|---|---|---|---|
| 1777425758 | 0° C | 63% | 1027.8 hPa | 0 mm | - | 0 W/m² | - |
| 1777423956 | -0.56° C | 61% | 1027.9 hPa | 0 mm | - | 0 W/m² | - |
| 1777423132 | -0.56° C | 58% | 1027.8 hPa | 0 mm | - | 0 W/m² | - |
| 1777414059 | 5.56° C | 40% | 1027.2 hPa | 0 mm | - | 0 W/m² | - |
| 1777411357 | 7.22° C | 36% | 1027 hPa | 0 mm | - | 0 W/m² | - |
| 1777410456 | 6.67° C | 37% | 1026.7 hPa | 0 mm | - | 0 W/m² | - |
| 1777408656 | 7.78° C | 37% | 1026.7 hPa | 0 mm | - | 0 W/m² | - |
| 1777404156 | 8.89° C | 35% | 1026.3 hPa | 0 mm | - | 0 W/m² | - |
| 1777400558 | 10.56° C | 33% | 1025.3 hPa | 0 mm | - | 0 W/m² | - |
| 1777396967 | 13.89° C | 30% | 1024.5 hPa | 0 mm | - | 24 W/m² | - |
| 1777395159 | 15° C | 32% | 1024.2 hPa | 0 mm | - | 39 W/m² | - |
| 1777390665 | 18.33° C | 31% | 1024 hPa | 0 mm | - | 115 W/m² | - |
| 1777388859 | 18.89° C | 30% | 1024.1 hPa | 0 mm | - | 84 W/m² | - |
| 1777387058 | 18.89° C | 32% | 1024.1 hPa | 0 mm | - | 133 W/m² | - |
| 1777385260 | 18.33° C | 32% | 1024.5 hPa | 0 mm | - | 139 W/m² | - |
| 1777383458 | 18.89° C | 32% | 1024.3 hPa | 0 mm | - | 429 W/m² | - |
| 1777378066 | 18.89° C | 32% | 1024.8 hPa | 0 mm | - | 629 W/m² | - |
| 1777376259 | 17.78° C | 31% | 1024.8 hPa | 0 mm | - | 677 W/m² | - |
| 1777375360 | 18.33° C | 31% | 1024.9 hPa | 0 mm | - | 684 W/m² | - |
| 1777373559 | 17.78° C | 32% | 1025 hPa | 0 mm | - | 698 W/m² | - |
| 1777372659 | 17.22° C | 34% | 1025.2 hPa | 0 mm | - | 699 W/m² | - |
| 1777371765 | 18.33° C | 31% | 1025.3 hPa | 0 mm | - | 694 W/m² | - |
| 1777370859 | 18.89° C | 31% | 1025.2 hPa | 0 mm | - | 680 W/m² | - |
| 1777369058 | 18.33° C | 31% | 1025.5 hPa | 0 mm | - | 624 W/m² | - |
| 1777368160 | 17.78° C | 33% | 1025.2 hPa | 0 mm | - | 675 W/m² | - |
* Rain latest hour (hover to see other rain measurements)
** Current wind speed in m/s (hover to see current wind gust speed)